createdAt,value
2023-04-16T00:00:12.980Z,7.40
2023-04-16T00:02:42.264Z,7.30
2023-04-16T00:05:09.042Z,7.40
2023-04-16T00:07:35.952Z,7.40
2023-04-16T00:10:02.567Z,7.30
2023-04-16T00:12:29.220Z,7.40
2023-04-16T00:14:55.871Z,7.30
2023-04-16T00:17:22.502Z,7.30
2023-04-16T00:19:49.124Z,7.30
2023-04-16T00:22:20.988Z,7.30
2023-04-16T00:24:47.608Z,7.30
2023-04-16T00:27:14.219Z,7.30
2023-04-16T00:29:40.883Z,7.20
2023-04-16T00:32:07.781Z,7.20
2023-04-16T00:34:36.192Z,7.30
2023-04-16T00:37:02.928Z,7.30
2023-04-16T00:39:29.572Z,7.30
2023-04-16T00:41:58.203Z,7.30
2023-04-16T00:44:24.854Z,7.30
2023-04-16T00:46:53.173Z,7.20
2023-04-16T00:49:19.823Z,7.20
2023-04-16T00:51:46.448Z,7.20
2023-04-16T00:54:13.337Z,7.20
2023-04-16T00:56:39.997Z,7.10
2023-04-16T00:59:06.748Z,7.10
2023-04-16T01:01:33.631Z,7.10
2023-04-16T01:04:02.604Z,7.10
2023-04-16T01:06:29.242Z,7.10
2023-04-16T01:08:55.899Z,7.10
2023-04-16T01:11:22.489Z,7.00
2023-04-16T01:13:50.298Z,7.00
2023-04-16T01:16:17.242Z,7.00
2023-04-16T01:18:43.920Z,7.00
2023-04-16T01:21:10.561Z,6.90
2023-04-16T01:26:41.810Z,6.90
2023-04-16T01:29:08.678Z,6.90
2023-04-16T01:31:35.647Z,6.80
2023-04-16T01:34:13.832Z,6.80
2023-04-16T01:36:40.510Z,6.90
2023-04-16T01:39:07.706Z,6.90
2023-04-16T01:41:34.519Z,6.90
2023-04-16T01:44:19.932Z,6.90
2023-04-16T01:46:46.535Z,6.90
2023-04-16T01:49:13.144Z,6.90
2023-04-16T01:51:39.887Z,6.90
2023-04-16T01:54:08.890Z,6.90
2023-04-16T01:56:35.608Z,6.80
2023-04-16T01:59:02.512Z,6.90
2023-04-16T02:01:34.903Z,6.80
2023-04-16T02:04:03.938Z,6.80
2023-04-16T02:06:31.574Z,6.80
2023-04-16T02:08:58.184Z,6.80
2023-04-16T02:11:26.364Z,6.80
2023-04-16T02:13:54.950Z,6.80
2023-04-16T02:16:21.635Z,6.80
2023-04-16T02:18:51.882Z,6.80
2023-04-16T02:21:21.010Z,6.80
2023-04-16T02:23:51.807Z,6.80
2023-04-16T02:26:23.644Z,6.80
2023-04-16T02:28:51.081Z,6.70
2023-04-16T02:31:22.400Z,6.70
2023-04-16T02:34:08.368Z,6.70
2023-04-16T02:36:35.102Z,6.70
2023-04-16T02:39:01.883Z,6.70
2023-04-16T02:41:28.547Z,6.70
2023-04-16T02:44:14.273Z,6.70
2023-04-16T02:46:40.959Z,6.70
2023-04-16T02:49:07.959Z,6.70
2023-04-16T02:51:34.822Z,6.80
2023-04-16T02:54:03.041Z,6.80
2023-04-16T02:56:30.644Z,6.80
2023-04-16T02:58:57.304Z,6.80
2023-04-16T03:01:24.183Z,6.80
2023-04-16T03:03:54.055Z,6.80
2023-04-16T03:06:21.105Z,6.70
2023-04-16T03:08:47.712Z,6.70
2023-04-16T03:11:15.376Z,6.80
2023-04-16T03:13:42.241Z,6.80
2023-04-16T03:16:10.671Z,6.70
2023-04-16T03:18:37.293Z,6.70
2023-04-16T03:21:03.914Z,6.70
2023-04-16T03:23:34.750Z,6.70
2023-04-16T03:26:01.412Z,6.70
2023-04-16T03:28:29.014Z,6.80
2023-04-16T03:30:55.917Z,6.80
2023-04-16T03:33:23.745Z,6.80
2023-04-16T03:35:52.689Z,6.80
2023-04-16T03:38:19.312Z,6.80
2023-04-16T03:40:46.308Z,6.90
2023-04-16T03:43:34.997Z,6.90
2023-04-16T03:46:01.784Z,6.90
2023-04-16T03:48:28.566Z,6.90
2023-04-16T03:50:55.475Z,6.90
2023-04-16T03:53:22.429Z,6.90
2023-04-16T03:55:49.309Z,6.90
2023-04-16T03:58:16.114Z,6.90
2023-04-16T04:00:43.265Z,7.00
2023-04-16T04:03:19.954Z,7.00
2023-04-16T04:05:49.071Z,7.00
2023-04-16T04:08:21.846Z,7.00
2023-04-16T04:10:48.579Z,7.10
2023-04-16T04:13:19.874Z,7.10
2023-04-16T04:15:46.577Z,7.00
2023-04-16T04:18:13.194Z,7.10
2023-04-16T04:20:40.110Z,7.10
2023-04-16T04:23:08.800Z,7.10
2023-04-16T04:25:35.473Z,7.10
2023-04-16T04:28:02.052Z,7.10
2023-04-16T04:30:29.005Z,7.10
2023-04-16T04:32:56.936Z,7.20
2023-04-16T04:35:23.585Z,7.20
2023-04-16T04:37:50.578Z,7.20
2023-04-16T04:40:19.626Z,7.20
2023-04-16T04:42:47.543Z,7.20
2023-04-16T04:45:15.279Z,7.20
2023-04-16T04:47:41.958Z,7.20
2023-04-16T04:50:08.654Z,7.20
2023-04-16T04:52:35.879Z,7.30
2023-04-16T04:55:03.046Z,7.30
2023-04-16T04:57:30.404Z,7.30
2023-04-16T04:59:57.041Z,7.30
2023-04-16T05:02:50.904Z,7.30
2023-04-16T05:05:17.777Z,7.20
2023-04-16T05:07:44.492Z,7.30
2023-04-16T05:10:11.149Z,7.30
2023-04-16T05:12:41.901Z,7.30
2023-04-16T05:15:08.554Z,7.30
2023-04-16T05:17:35.667Z,7.30
2023-04-16T05:20:02.337Z,7.30
2023-04-16T05:22:30.521Z,7.40
2023-04-16T05:24:57.155Z,7.40
2023-04-16T05:27:23.972Z,7.40
2023-04-16T05:29:50.684Z,7.50
2023-04-16T05:32:17.648Z,7.50
2023-04-16T05:34:44.265Z,7.50
2023-04-16T05:37:10.928Z,7.60
2023-04-16T05:39:37.560Z,7.60
2023-04-16T05:42:24.286Z,7.60
2023-04-16T05:44:50.889Z,7.60
2023-04-16T05:47:17.563Z,7.60
2023-04-16T05:49:44.243Z,7.60
2023-04-16T05:52:11.060Z,7.70
2023-04-16T05:54:37.673Z,7.70
2023-04-16T05:57:04.360Z,7.70
2023-04-16T05:59:31.317Z,7.80
2023-04-16T06:01:58.059Z,7.90
2023-04-16T06:04:24.972Z,7.90
2023-04-16T06:06:51.612Z,8.00
2023-04-16T06:09:18.973Z,8.00
2023-04-16T06:11:45.979Z,8.10
2023-04-16T06:14:14.909Z,8.20
2023-04-16T06:16:41.508Z,8.20
2023-04-16T06:19:08.651Z,8.30
2023-04-16T06:21:35.618Z,8.40
2023-04-16T06:24:03.453Z,8.50
2023-04-16T06:26:30.089Z,8.60
2023-04-16T06:28:56.710Z,8.60
2023-04-16T06:31:23.389Z,8.80
2023-04-16T06:33:53.230Z,8.90
2023-04-16T06:36:19.831Z,8.90
2023-04-16T06:38:46.542Z,9.00
2023-04-16T06:41:13.135Z,9.10
2023-04-16T06:43:41.115Z,9.20
2023-04-16T06:46:07.722Z,9.30
2023-04-16T06:48:34.394Z,9.40
2023-04-16T06:51:01.396Z,9.50
2023-04-16T06:53:28.396Z,9.60
2023-04-16T06:55:55.052Z,9.70
2023-04-16T06:58:22.409Z,9.80
2023-04-16T07:00:49.041Z,9.90
2023-04-16T07:03:16.191Z,10.00
2023-04-16T07:05:42.933Z,10.10
2023-04-16T07:08:09.617Z,10.20
2023-04-16T07:10:36.238Z,10.20
2023-04-16T07:13:07.060Z,10.40
2023-04-16T07:15:33.640Z,10.50
2023-04-16T07:18:00.354Z,10.70
2023-04-16T07:20:27.111Z,10.70
2023-04-16T07:22:53.857Z,10.80
2023-04-16T07:25:20.486Z,10.90
2023-04-16T07:27:47.095Z,11.00
2023-04-16T07:30:13.948Z,11.10
2023-04-16T07:32:42.804Z,11.20
2023-04-16T07:35:09.559Z,11.20
2023-04-16T07:37:36.131Z,11.40
2023-04-16T07:40:02.856Z,11.50
2023-04-16T07:42:34.663Z,11.70
2023-04-16T07:45:01.352Z,11.80
2023-04-16T07:47:27.940Z,11.90
2023-04-16T07:49:54.690Z,12.00
2023-04-16T07:52:21.493Z,12.20
2023-04-16T07:54:48.478Z,12.50
2023-04-16T07:57:16.493Z,12.60
2023-04-16T07:59:43.176Z,12.80
2023-04-16T08:02:29.001Z,12.90
2023-04-16T08:04:56.035Z,13.10
2023-04-16T08:07:22.824Z,13.30
2023-04-16T08:09:49.715Z,13.40
2023-04-16T08:12:19.305Z,13.50
2023-04-16T08:14:47.723Z,13.50
2023-04-16T08:17:14.397Z,13.50
2023-04-16T08:19:41.103Z,13.60
2023-04-16T08:22:07.858Z,13.70
2023-04-16T08:24:38.260Z,13.90
2023-04-16T08:27:15.430Z,14.00
2023-04-16T08:29:44.874Z,14.00
2023-04-16T08:32:11.620Z,14.10
2023-04-16T08:34:38.419Z,14.20
2023-04-16T08:37:05.176Z,14.20
2023-04-16T08:39:31.984Z,14.20
2023-04-16T08:41:58.961Z,14.20
2023-04-16T08:44:36.092Z,14.20
2023-04-16T08:47:02.937Z,14.30
2023-04-16T08:49:32.677Z,14.20
2023-04-16T08:52:04.093Z,14.30
2023-04-16T08:54:30.777Z,14.40
2023-04-16T08:57:00.487Z,14.60
2023-04-16T08:59:27.230Z,14.70
2023-04-16T09:01:56.967Z,14.70
2023-04-16T09:04:23.806Z,14.80
2023-04-16T09:06:50.609Z,14.90
2023-04-16T09:09:17.253Z,14.90
2023-04-16T09:11:45.352Z,15.10
2023-04-16T09:14:15.181Z,15.10
2023-04-16T09:16:41.966Z,15.00
2023-04-16T09:19:09.394Z,15.10
2023-04-16T09:21:36.366Z,15.30
2023-04-16T09:24:30.598Z,15.20
2023-04-16T09:27:08.940Z,15.20
2023-04-16T09:29:40.596Z,15.40
2023-04-16T09:32:08.527Z,15.50
2023-04-16T09:34:35.421Z,15.60
2023-04-16T09:37:13.347Z,15.60
2023-04-16T09:39:43.104Z,15.70
2023-04-16T09:42:09.833Z,15.70
2023-04-16T09:44:40.264Z,15.90
2023-04-16T09:47:07.240Z,15.80
2023-04-16T09:49:33.874Z,16.00
2023-04-16T09:52:02.775Z,16.20
2023-04-16T09:54:29.404Z,16.30
2023-04-16T09:56:56.098Z,16.60
2023-04-16T09:59:22.711Z,16.40
2023-04-16T10:01:49.835Z,16.30
2023-04-16T10:04:16.940Z,16.30
2023-04-16T10:06:44.156Z,16.60
2023-04-16T10:09:11.133Z,16.80
2023-04-16T10:11:37.957Z,17.00
2023-04-16T10:14:06.199Z,17.00
2023-04-16T10:16:33.020Z,16.90
2023-04-16T10:18:59.810Z,16.50
2023-04-16T10:21:33.646Z,16.40
2023-04-16T10:24:01.881Z,16.50
2023-04-16T10:26:28.522Z,16.60
2023-04-16T10:28:55.224Z,16.60
2023-04-16T10:31:21.943Z,16.40
2023-04-16T10:34:07.544Z,16.20
2023-04-16T10:36:34.216Z,16.10
2023-04-16T10:39:00.946Z,16.20
2023-04-16T10:41:27.721Z,16.50
2023-04-16T10:43:54.380Z,16.80
2023-04-16T10:46:21.154Z,16.90
2023-04-16T10:48:50.111Z,16.80
2023-04-16T10:51:17.487Z,16.80
2023-04-16T10:53:45.276Z,16.80
2023-04-16T10:56:12.751Z,16.80
2023-04-16T10:58:39.429Z,16.90
2023-04-16T11:01:06.075Z,17.00
2023-04-16T11:03:32.969Z,16.90
2023-04-16T11:05:59.679Z,17.00
2023-04-16T11:08:27.030Z,17.30
2023-04-16T11:10:54.316Z,17.50
2023-04-16T11:13:21.161Z,17.70
2023-04-16T11:15:47.844Z,17.90
2023-04-16T11:18:14.442Z,18.20
2023-04-16T11:20:41.088Z,18.00
2023-04-16T11:23:09.993Z,18.00
2023-04-16T11:25:36.603Z,18.20
2023-04-16T11:28:03.288Z,18.50
2023-04-16T11:30:30.421Z,18.50
2023-04-16T11:32:59.375Z,18.50
2023-04-16T11:35:26.171Z,18.60
2023-04-16T11:37:52.756Z,18.50
2023-04-16T11:40:19.426Z,18.60
2023-04-16T11:42:46.191Z,18.40
2023-04-16T11:45:12.848Z,18.20
2023-04-16T11:47:39.460Z,18.00
2023-04-16T11:50:06.114Z,17.70
2023-04-16T11:52:32.882Z,17.90
2023-04-16T11:54:59.524Z,18.00
2023-04-16T11:57:26.502Z,18.30
2023-04-16T12:00:02.140Z,18.20
2023-04-16T12:02:40.019Z,18.30
2023-04-16T12:05:07.508Z,18.40
2023-04-16T12:07:34.189Z,18.30
2023-04-16T12:10:01.205Z,18.50
2023-04-16T12:12:30.883Z,18.60
2023-04-16T12:15:00.142Z,19.10
2023-04-16T12:17:26.912Z,19.00
2023-04-16T12:19:53.662Z,19.10
2023-04-16T12:22:21.348Z,19.30
2023-04-16T12:24:47.957Z,19.40
2023-04-16T12:27:16.293Z,19.50
2023-04-16T12:29:42.895Z,19.60
2023-04-16T12:32:09.639Z,19.60
2023-04-16T12:34:48.458Z,19.60
2023-04-16T12:37:16.002Z,19.60
2023-04-16T12:39:42.753Z,19.50
2023-04-16T12:42:12.742Z,19.60
2023-04-16T12:44:39.409Z,20.00
2023-04-16T12:47:08.412Z,20.30
2023-04-16T12:49:36.905Z,20.50
2023-04-16T12:52:03.923Z,20.60
2023-04-16T12:54:31.295Z,20.70
2023-04-16T12:56:57.882Z,20.90
2023-04-16T12:59:24.475Z,21.10
2023-04-16T13:01:51.504Z,21.50
2023-04-16T13:04:19.227Z,22.00
2023-04-16T13:06:45.932Z,22.40
2023-04-16T13:09:12.808Z,22.40
2023-04-16T13:11:39.450Z,22.60
2023-04-16T13:14:06.400Z,22.30
2023-04-16T13:16:33.044Z,22.20
2023-04-16T13:18:59.671Z,22.80
2023-04-16T13:21:27.215Z,23.40
2023-04-16T13:23:54.083Z,23.20
2023-04-16T13:26:20.801Z,22.70
2023-04-16T13:28:47.550Z,23.10
2023-04-16T13:31:15.705Z,23.30
2023-04-16T13:33:42.563Z,23.00
2023-04-16T13:36:09.152Z,22.20
2023-04-16T13:38:35.959Z,22.10
2023-04-16T13:41:02.570Z,21.30
2023-04-16T13:43:29.202Z,20.80
2023-04-16T13:45:55.890Z,20.30
2023-04-16T13:48:22.509Z,19.80
2023-04-16T13:50:49.090Z,19.50
2023-04-16T13:53:16.017Z,19.50
2023-04-16T13:55:42.642Z,19.50
2023-04-16T13:58:09.526Z,19.60
2023-04-16T14:00:36.332Z,19.80
2023-04-16T14:03:03.310Z,20.00
2023-04-16T14:05:30.081Z,20.20
2023-04-16T14:07:56.714Z,20.30
2023-04-16T14:10:23.315Z,20.20
2023-04-16T14:13:10.128Z,20.50
2023-04-16T14:15:36.756Z,20.30
2023-04-16T14:18:03.826Z,20.20
2023-04-16T14:20:30.604Z,20.00
2023-04-16T14:23:15.954Z,20.10
2023-04-16T14:25:42.628Z,20.00
2023-04-16T14:28:09.399Z,19.90
2023-04-16T14:30:36.032Z,19.70
2023-04-16T14:33:06.005Z,19.90
2023-04-16T14:35:33.920Z,20.00
2023-04-16T14:38:01.208Z,20.10
2023-04-16T14:40:27.950Z,20.00
2023-04-16T14:42:54.538Z,19.80
2023-04-16T14:45:21.257Z,19.60
2023-04-16T14:47:50.817Z,19.40
2023-04-16T14:50:17.470Z,19.30
2023-04-16T14:52:44.121Z,19.50
2023-04-16T14:55:10.833Z,19.60
2023-04-16T14:57:38.492Z,19.40
2023-04-16T15:00:09.003Z,19.20
2023-04-16T15:02:36.294Z,19.20
2023-04-16T15:05:02.983Z,19.40
2023-04-16T15:07:29.722Z,19.60
2023-04-16T15:09:56.511Z,19.30
2023-04-16T15:12:23.264Z,19.20
2023-04-16T15:14:49.883Z,18.80
2023-04-16T15:17:16.540Z,18.70
2023-04-16T15:19:43.200Z,18.50
2023-04-16T15:22:10.928Z,18.30
2023-04-16T15:24:37.595Z,18.10
2023-04-16T15:27:05.866Z,18.20
2023-04-16T15:29:32.482Z,18.20
2023-04-16T15:31:59.091Z,18.30
2023-04-16T15:34:25.856Z,18.20
2023-04-16T15:36:52.668Z,18.00
2023-04-16T15:39:20.113Z,17.80
2023-04-16T15:41:59.921Z,17.80
2023-04-16T15:44:28.271Z,17.90
2023-04-16T15:46:54.897Z,17.80
2023-04-16T15:49:21.553Z,17.70
2023-04-16T15:51:48.420Z,17.70
2023-04-16T15:54:15.037Z,17.70
2023-04-16T15:56:41.681Z,17.70
2023-04-16T15:59:08.599Z,17.50
2023-04-16T16:01:36.559Z,17.80
2023-04-16T16:04:06.711Z,17.90
2023-04-16T16:06:33.461Z,18.00
2023-04-16T16:09:00.095Z,18.10
2023-04-16T16:11:27.304Z,18.10
2023-04-16T16:13:54.039Z,18.40
2023-04-16T16:16:21.717Z,18.60
2023-04-16T16:18:48.742Z,18.60
2023-04-16T16:21:15.412Z,18.30
2023-04-16T16:23:42.160Z,18.20
2023-04-16T16:26:09.261Z,18.10
2023-04-16T16:28:39.194Z,18.10
2023-04-16T16:31:06.197Z,18.20
2023-04-16T16:33:32.897Z,18.30
2023-04-16T16:35:59.663Z,18.30
2023-04-16T16:38:26.333Z,18.30
2023-04-16T16:40:53.010Z,18.40
2023-04-16T16:43:20.287Z,18.20
2023-04-16T16:45:47.238Z,18.00
2023-04-16T16:48:13.889Z,17.90
2023-04-16T16:50:40.601Z,17.80
2023-04-16T16:53:07.506Z,17.70
2023-04-16T16:55:35.562Z,17.70
2023-04-16T16:58:02.312Z,17.60
2023-04-16T17:00:29.021Z,17.50
2023-04-16T17:02:55.882Z,17.40
2023-04-16T17:05:22.702Z,17.30
2023-04-16T17:07:49.344Z,17.50
2023-04-16T17:10:20.171Z,17.30
2023-04-16T17:12:47.534Z,17.30
2023-04-16T17:15:14.249Z,17.20
2023-04-16T17:17:41.025Z,17.00
2023-04-16T17:20:09.960Z,16.90
2023-04-16T17:22:36.666Z,16.80
2023-04-16T17:25:03.801Z,16.80
2023-04-16T17:27:33.763Z,16.60
2023-04-16T17:30:03.170Z,16.60
2023-04-16T17:32:32.523Z,16.50
2023-04-16T17:34:59.286Z,16.50
2023-04-16T17:37:25.929Z,16.40
2023-04-16T17:39:52.722Z,16.40
2023-04-16T17:42:19.385Z,16.30
2023-04-16T17:44:45.999Z,16.30
2023-04-16T17:47:12.605Z,16.30
2023-04-16T17:49:39.154Z,16.30
2023-04-16T17:52:05.795Z,16.20
2023-04-16T17:54:32.481Z,16.10
2023-04-16T17:56:59.130Z,16.10
2023-04-16T17:59:25.938Z,16.00
2023-04-16T18:01:53.030Z,16.00
2023-04-16T18:04:19.935Z,15.90
2023-04-16T18:06:46.757Z,15.90
2023-04-16T18:09:14.295Z,15.90
2023-04-16T18:11:40.938Z,15.80
2023-04-16T18:14:09.865Z,15.70
2023-04-16T18:16:36.791Z,15.70
2023-04-16T18:19:03.387Z,15.70
2023-04-16T18:21:30.452Z,15.70
2023-04-16T18:23:57.174Z,15.70
2023-04-16T18:26:25.281Z,15.70
2023-04-16T18:28:52.051Z,15.60
2023-04-16T18:31:21.133Z,15.50
2023-04-16T18:33:56.555Z,15.50
2023-04-16T18:36:24.400Z,15.40
2023-04-16T18:39:00.802Z,15.40
2023-04-16T18:41:28.761Z,15.40
2023-04-16T18:43:55.473Z,15.40
2023-04-16T18:46:22.172Z,15.30
2023-04-16T18:48:49.122Z,15.30
2023-04-16T18:51:16.683Z,15.30
2023-04-16T18:53:44.574Z,15.30
2023-04-16T18:56:11.612Z,15.30
2023-04-16T18:58:38.292Z,15.30
2023-04-16T19:01:07.775Z,15.30
2023-04-16T19:03:34.768Z,15.20
2023-04-16T19:06:01.559Z,15.20
2023-04-16T19:08:28.339Z,15.20
2023-04-16T19:10:54.971Z,15.20
2023-04-16T19:13:21.598Z,15.20
2023-04-16T19:15:51.927Z,15.10
2023-04-16T19:18:18.678Z,15.10
2023-04-16T19:20:45.473Z,15.00
2023-04-16T19:23:13.025Z,14.90
2023-04-16T19:25:39.668Z,14.90
2023-04-16T19:28:06.672Z,14.80
2023-04-16T19:30:33.581Z,14.80
2023-04-16T19:33:00.244Z,14.70
2023-04-16T19:35:27.148Z,14.70
2023-04-16T19:37:56.197Z,14.60
2023-04-16T19:40:22.851Z,14.60
2023-04-16T19:42:49.554Z,14.60
2023-04-16T19:45:17.432Z,14.50
2023-04-16T19:47:44.208Z,14.50
2023-04-16T19:50:11.321Z,14.50
2023-04-16T19:52:39.103Z,14.40
2023-04-16T19:55:06.464Z,14.30
2023-04-16T19:57:33.165Z,14.30
2023-04-16T19:59:59.808Z,14.30
2023-04-16T20:02:26.750Z,14.20
2023-04-16T20:04:53.512Z,14.20
2023-04-16T20:07:20.596Z,14.20
2023-04-16T20:09:49.584Z,14.10
2023-04-16T20:12:16.386Z,14.10
2023-04-16T20:14:43.815Z,14.10
2023-04-16T20:17:10.549Z,14.10
2023-04-16T20:19:38.400Z,14.00
2023-04-16T20:22:05.020Z,14.00
2023-04-16T20:24:31.694Z,14.00
2023-04-16T20:26:58.349Z,13.90
2023-04-16T20:29:25.001Z,13.90
2023-04-16T20:31:52.178Z,13.80
2023-04-16T20:34:18.875Z,13.80
2023-04-16T20:36:45.758Z,13.80
2023-04-16T20:39:12.752Z,13.80
2023-04-16T20:41:44.126Z,13.80
2023-04-16T20:44:17.967Z,13.70
2023-04-16T20:46:49.404Z,13.70
2023-04-16T20:49:17.726Z,13.70
2023-04-16T20:51:44.447Z,13.70
2023-04-16T20:54:11.192Z,13.70
2023-04-16T20:56:37.804Z,13.70
2023-04-16T20:59:04.513Z,13.70
2023-04-16T21:01:31.222Z,13.60
2023-04-16T21:03:58.092Z,13.60
2023-04-16T21:06:24.933Z,13.60
2023-04-16T21:08:51.623Z,13.60
2023-04-16T21:11:18.252Z,13.50
2023-04-16T21:13:44.890Z,13.50
2023-04-16T21:16:12.450Z,13.50
2023-04-16T21:18:39.182Z,13.50
2023-04-16T21:21:06.024Z,13.50
2023-04-16T21:23:32.685Z,13.40
2023-04-16T21:25:59.305Z,13.40
2023-04-16T21:28:25.966Z,13.40
2023-04-16T21:30:52.604Z,13.40
2023-04-16T21:33:19.338Z,13.30
2023-04-16T21:35:46.057Z,13.40
2023-04-16T21:38:12.672Z,13.40
2023-04-16T21:40:39.302Z,13.40
2023-04-16T21:43:06.482Z,13.40
2023-04-16T21:45:33.146Z,13.40
2023-04-16T21:47:59.792Z,13.40
2023-04-16T21:50:26.846Z,13.40
2023-04-16T21:52:54.794Z,13.40
2023-04-16T21:55:21.429Z,13.40
2023-04-16T21:57:48.075Z,13.40
2023-04-16T22:00:14.681Z,13.40
2023-04-16T22:02:41.833Z,13.40
2023-04-16T22:05:09.135Z,13.40
2023-04-16T22:07:36.717Z,13.40
2023-04-16T22:10:03.314Z,13.40
2023-04-16T22:12:29.941Z,13.40
2023-04-16T22:15:02.429Z,13.40
2023-04-16T22:17:30.123Z,13.40
2023-04-16T22:19:57.357Z,13.40
2023-04-16T22:22:24.001Z,13.30
2023-04-16T22:24:50.812Z,13.40
2023-04-16T22:27:17.446Z,13.30
2023-04-16T22:29:44.080Z,13.30
2023-04-16T22:32:10.773Z,13.30
2023-04-16T22:34:37.450Z,13.30
2023-04-16T22:37:04.102Z,13.30
2023-04-16T22:39:31.568Z,13.30
2023-04-16T22:41:58.171Z,13.20
2023-04-16T22:44:24.735Z,13.20
2023-04-16T22:46:51.447Z,13.20
2023-04-16T22:49:18.072Z,13.20
2023-04-16T22:51:45.010Z,13.20
2023-04-16T22:54:13.269Z,13.20
2023-04-16T22:56:40.756Z,13.20
2023-04-16T22:59:07.415Z,13.20
2023-04-16T23:01:34.103Z,13.10
2023-04-16T23:04:00.973Z,13.10
2023-04-16T23:06:27.926Z,13.10
2023-04-16T23:08:54.558Z,13.10
2023-04-16T23:11:21.238Z,13.10
2023-04-16T23:13:47.803Z,13.10
2023-04-16T23:16:14.508Z,13.10
2023-04-16T23:18:41.137Z,13.10
2023-04-16T23:21:07.711Z,13.10
2023-04-16T23:23:34.276Z,13.10
2023-04-16T23:26:02.661Z,13.10
2023-04-16T23:28:29.269Z,13.00
2023-04-16T23:30:55.999Z,13.00
2023-04-16T23:33:22.728Z,13.00
2023-04-16T23:35:49.369Z,13.00
2023-04-16T23:38:16.188Z,13.00
2023-04-16T23:40:42.874Z,13.00
2023-04-16T23:43:09.465Z,13.00
2023-04-16T23:45:36.145Z,13.00
2023-04-16T23:48:02.824Z,13.00
2023-04-16T23:50:29.496Z,12.90
2023-04-16T23:52:56.099Z,12.90
2023-04-16T23:55:22.772Z,12.80
2023-04-16T23:57:49.450Z,12.80
